createdAt,value
2022-12-29T00:00:09.924Z,3.97
2022-12-29T00:02:36.585Z,3.38
2022-12-29T00:05:03.316Z,3.47
2022-12-29T00:07:29.716Z,3.42
2022-12-29T00:09:56.109Z,3.30
2022-12-29T00:12:23.005Z,2.97
2022-12-29T00:15:25.301Z,3.70
2022-12-29T00:17:51.707Z,3.92
2022-12-29T00:20:36.711Z,3.35
2022-12-29T00:23:21.788Z,3.00
2022-12-29T00:26:06.811Z,3.65
2022-12-29T00:28:52.198Z,3.83
2022-12-29T00:31:37.226Z,4.78
2022-12-29T00:34:22.292Z,3.28
2022-12-29T00:36:48.690Z,2.80
2022-12-29T00:39:36.204Z,3.00
2022-12-29T00:42:41.362Z,2.65
2022-12-29T00:45:08.056Z,2.65
2022-12-29T00:47:34.426Z,2.60
2022-12-29T00:50:00.850Z,2.75
2022-12-29T00:52:27.380Z,3.22
2022-12-29T00:54:53.785Z,2.88
2022-12-29T00:57:20.172Z,2.67
2022-12-29T00:59:46.616Z,2.70
2022-12-29T01:02:13.333Z,2.72
2022-12-29T01:04:39.914Z,3.47
2022-12-29T01:07:06.448Z,3.22
2022-12-29T01:09:52.147Z,3.10
2022-12-29T01:12:39.259Z,2.63
2022-12-29T01:15:06.482Z,2.92
2022-12-29T01:17:33.631Z,3.00
2022-12-29T01:20:01.125Z,3.55
2022-12-29T01:22:27.520Z,2.60
2022-12-29T01:24:53.905Z,2.90
2022-12-29T01:27:20.309Z,2.88
2022-12-29T01:29:46.705Z,2.42
2022-12-29T01:32:13.145Z,2.20
2022-12-29T01:34:39.551Z,2.33
2022-12-29T01:37:05.946Z,2.22
2022-12-29T01:39:32.336Z,1.92
2022-12-29T01:41:58.748Z,1.60
2022-12-29T01:44:56.033Z,1.60
2022-12-29T01:47:34.789Z,1.17
2022-12-29T01:50:24.136Z,1.63
2022-12-29T01:52:56.907Z,1.50
2022-12-29T01:55:23.894Z,1.40
2022-12-29T01:57:52.163Z,1.40
2022-12-29T02:00:18.608Z,1.30
2022-12-29T02:02:48.742Z,1.50
2022-12-29T02:05:29.239Z,1.40
2022-12-29T02:07:55.769Z,1.80
2022-12-29T02:10:24.361Z,1.50
2022-12-29T02:12:50.788Z,1.50
2022-12-29T02:15:17.552Z,1.42
2022-12-29T02:18:00.530Z,1.30
2022-12-29T02:20:59.739Z,1.60
2022-12-29T02:23:44.948Z,1.23
2022-12-29T02:26:35.120Z,1.30
2022-12-29T02:29:06.912Z,1.13
2022-12-29T02:32:25.933Z,1.42
2022-12-29T02:35:35.770Z,1.42
2022-12-29T02:38:35.586Z,1.50
2022-12-29T02:41:10.466Z,1.42
2022-12-29T02:43:46.442Z,1.30
2022-12-29T02:46:48.331Z,1.77
2022-12-29T02:49:21.261Z,1.40
2022-12-29T02:51:59.480Z,1.33
2022-12-29T02:54:44.253Z,1.30
2022-12-29T02:57:16.389Z,1.10
2022-12-29T02:59:45.065Z,1.27
2022-12-29T03:02:29.434Z,1.10
2022-12-29T03:05:11.152Z,1.40
2022-12-29T03:07:53.451Z,1.23
2022-12-29T03:10:31.180Z,1.83
2022-12-29T03:13:22.227Z,1.52
2022-12-29T03:16:03.117Z,1.65
2022-12-29T03:18:29.464Z,1.70
2022-12-29T03:21:03.069Z,1.75
2022-12-29T03:23:30.163Z,1.67
2022-12-29T03:25:59.115Z,2.10
2022-12-29T03:28:29.514Z,2.17
2022-12-29T03:30:56.684Z,1.70
2022-12-29T03:33:25.365Z,2.67
2022-12-29T03:35:54.810Z,2.05
2022-12-29T03:38:42.014Z,2.60
2022-12-29T03:41:11.665Z,2.15
2022-12-29T03:43:38.412Z,2.38
2022-12-29T03:46:04.896Z,1.25
2022-12-29T03:48:31.589Z,1.90
2022-12-29T03:50:58.119Z,1.75
2022-12-29T03:53:24.545Z,2.17
2022-12-29T03:55:51.206Z,1.55
2022-12-29T03:58:17.604Z,1.50
2022-12-29T04:00:44.892Z,1.50
2022-12-29T04:03:11.698Z,1.33
2022-12-29T04:05:38.201Z,1.33
2022-12-29T04:08:04.698Z,1.15
2022-12-29T04:10:31.075Z,1.45
2022-12-29T04:12:57.497Z,1.48
2022-12-29T04:15:25.236Z,1.30
2022-12-29T04:17:51.744Z,1.50
2022-12-29T04:20:36.802Z,1.40
2022-12-29T04:23:04.833Z,1.58
2022-12-29T04:25:32.331Z,1.60
2022-12-29T04:27:58.906Z,1.73
2022-12-29T04:30:25.331Z,1.60
2022-12-29T04:32:51.773Z,1.23
2022-12-29T04:35:18.191Z,1.70
2022-12-29T04:37:44.790Z,1.25
2022-12-29T04:40:11.903Z,1.70
2022-12-29T04:42:38.341Z,1.65
2022-12-29T04:45:05.286Z,1.73
2022-12-29T04:47:31.728Z,1.52
2022-12-29T04:49:58.130Z,1.40
2022-12-29T04:52:24.737Z,1.67
2022-12-29T04:54:51.161Z,1.30
2022-12-29T04:57:17.570Z,0.55
2022-12-29T04:59:43.989Z,0.90
2022-12-29T05:02:10.623Z,1.05
2022-12-29T05:04:37.171Z,0.80
2022-12-29T05:07:03.592Z,1.23
2022-12-29T05:09:30.864Z,1.30
2022-12-29T05:11:57.317Z,0.90
2022-12-29T05:14:23.804Z,1.30
2022-12-29T05:16:50.265Z,1.55
2022-12-29T05:19:17.596Z,0.80
2022-12-29T05:21:45.111Z,0.88
2022-12-29T05:24:11.538Z,0.82
2022-12-29T05:26:38.031Z,0.77
2022-12-29T05:29:04.592Z,1.13
2022-12-29T05:31:31.083Z,0.90
2022-12-29T05:33:57.500Z,1.10
2022-12-29T05:36:24.208Z,1.45
2022-12-29T05:38:50.595Z,1.80
2022-12-29T05:41:17.064Z,2.35
2022-12-29T05:43:43.529Z,2.97
2022-12-29T05:46:09.973Z,2.85
2022-12-29T05:48:38.257Z,3.15
2022-12-29T05:51:05.064Z,3.53
2022-12-29T05:53:31.467Z,1.90
2022-12-29T05:55:58.016Z,2.00
2022-12-29T05:58:24.458Z,2.08
2022-12-29T06:00:51.108Z,1.83
2022-12-29T06:03:17.690Z,2.00
2022-12-29T06:05:48.014Z,2.00
2022-12-29T06:08:14.485Z,1.40
2022-12-29T06:10:40.919Z,1.38
2022-12-29T06:13:07.480Z,1.67
2022-12-29T06:15:34.729Z,1.80
2022-12-29T06:18:01.458Z,1.60
2022-12-29T06:20:28.057Z,1.00
2022-12-29T06:22:54.473Z,1.50
2022-12-29T06:25:21.077Z,1.08
2022-12-29T06:27:47.474Z,1.73
2022-12-29T06:30:14.248Z,1.80
2022-12-29T06:32:40.708Z,2.20
2022-12-29T06:35:07.475Z,2.10
2022-12-29T06:37:33.868Z,2.03
2022-12-29T06:40:00.356Z,1.70
2022-12-29T06:42:26.789Z,2.10
2022-12-29T06:44:53.335Z,2.30
2022-12-29T06:47:19.766Z,1.95
2022-12-29T06:49:46.233Z,1.80
2022-12-29T06:52:13.377Z,2.42
2022-12-29T06:54:40.694Z,1.83
2022-12-29T06:57:07.413Z,2.25
2022-12-29T06:59:33.823Z,2.08
2022-12-29T07:02:01.446Z,1.42
2022-12-29T07:04:28.003Z,1.38
2022-12-29T07:06:55.012Z,1.70
2022-12-29T07:09:21.452Z,1.40
2022-12-29T07:11:47.918Z,2.03
2022-12-29T07:14:14.354Z,1.73
2022-12-29T07:16:40.846Z,1.80
2022-12-29T07:19:07.290Z,2.03
2022-12-29T07:21:33.715Z,2.03
2022-12-29T07:24:00.287Z,1.85
2022-12-29T07:26:30.287Z,2.08
2022-12-29T07:29:01.543Z,2.55
2022-12-29T07:31:28.026Z,2.35
2022-12-29T07:33:55.050Z,2.65
2022-12-29T07:36:21.480Z,2.22
2022-12-29T07:38:47.883Z,2.70
2022-12-29T07:41:14.383Z,2.53
2022-12-29T07:43:40.811Z,2.22
2022-12-29T07:46:07.277Z,2.75
2022-12-29T07:48:36.823Z,1.90
2022-12-29T07:51:03.254Z,1.83
2022-12-29T07:53:29.689Z,2.15
2022-12-29T07:55:56.812Z,1.95
2022-12-29T07:58:23.256Z,2.00
2022-12-29T08:00:54.458Z,2.58
2022-12-29T08:03:21.172Z,2.75
2022-12-29T08:05:47.624Z,2.35
2022-12-29T08:08:14.140Z,2.00
2022-12-29T08:10:40.550Z,1.90
2022-12-29T08:13:06.986Z,2.92
2022-12-29T08:15:33.490Z,3.38
2022-12-29T08:18:00.314Z,2.67
2022-12-29T08:20:26.796Z,5.45
2022-12-29T08:22:53.215Z,3.13
2022-12-29T08:25:20.575Z,1.92
2022-12-29T08:27:47.091Z,3.08
2022-12-29T08:30:13.950Z,2.58
2022-12-29T08:32:40.378Z,2.63
2022-12-29T08:35:07.286Z,1.77
2022-12-29T08:37:34.392Z,1.90
2022-12-29T08:40:04.450Z,2.28
2022-12-29T08:42:32.023Z,2.87
2022-12-29T08:45:01.984Z,2.90
2022-12-29T08:47:28.651Z,2.47
2022-12-29T08:49:55.269Z,2.83
2022-12-29T08:52:21.672Z,2.70
2022-12-29T08:54:48.136Z,2.40
2022-12-29T08:57:14.546Z,3.25
2022-12-29T08:59:40.959Z,2.38
2022-12-29T09:02:11.726Z,1.40
2022-12-29T09:04:38.267Z,2.92
2022-12-29T09:07:04.708Z,1.40
2022-12-29T09:09:31.102Z,1.80
2022-12-29T09:11:57.606Z,1.50
2022-12-29T09:14:24.077Z,1.50
2022-12-29T09:17:11.436Z,1.20
2022-12-29T09:19:37.856Z,1.48
2022-12-29T09:22:04.295Z,2.05
2022-12-29T09:24:32.006Z,3.20
2022-12-29T09:26:58.468Z,2.97
2022-12-29T09:29:25.022Z,2.20
2022-12-29T09:31:51.496Z,3.15
2022-12-29T09:34:17.937Z,2.65
2022-12-29T09:36:44.346Z,2.17
2022-12-29T09:39:10.774Z,1.65
2022-12-29T09:41:45.669Z,1.40
2022-12-29T09:44:23.002Z,2.08
2022-12-29T09:46:51.430Z,1.38
2022-12-29T09:49:29.963Z,1.80
2022-12-29T09:52:01.114Z,1.80
2022-12-29T09:54:58.019Z,2.17
2022-12-29T09:57:46.588Z,1.90
2022-12-29T10:00:17.738Z,1.48
2022-12-29T10:02:51.121Z,2.65
2022-12-29T10:05:38.644Z,2.50
2022-12-29T10:08:26.590Z,1.92
2022-12-29T10:10:57.657Z,1.83
2022-12-29T10:16:09.641Z,2.53
2022-12-29T10:18:46.175Z,1.57
2022-12-29T10:21:23.870Z,2.35
2022-12-29T10:23:52.933Z,1.98
2022-12-29T10:26:22.067Z,1.50
2022-12-29T10:29:05.962Z,1.25
2022-12-29T10:31:32.349Z,1.77
2022-12-29T10:34:03.338Z,2.38
2022-12-29T10:39:11.439Z,1.73
2022-12-29T10:42:16.997Z,1.40
2022-12-29T10:44:43.456Z,1.50
2022-12-29T10:47:18.559Z,1.85
2022-12-29T10:49:46.680Z,2.67
2022-12-29T10:52:15.005Z,1.60
2022-12-29T10:54:47.860Z,2.30
2022-12-29T10:57:28.142Z,2.80
2022-12-29T10:59:54.744Z,2.50
2022-12-29T11:02:36.884Z,2.30
2022-12-29T11:05:32.873Z,1.77
2022-12-29T11:08:03.402Z,3.35
2022-12-29T11:10:39.737Z,2.10
2022-12-29T11:13:38.583Z,2.40
2022-12-29T11:16:05.727Z,1.92
2022-12-29T11:18:38.344Z,2.50
2022-12-29T11:21:08.152Z,2.83
2022-12-29T11:23:40.000Z,1.92
2022-12-29T11:26:18.423Z,2.58
2022-12-29T11:29:07.236Z,2.65
2022-12-29T11:31:42.271Z,2.25
2022-12-29T11:34:09.098Z,2.70
2022-12-29T11:36:36.816Z,2.22
2022-12-29T11:39:04.833Z,2.30
2022-12-29T11:41:34.107Z,1.90
2022-12-29T11:44:04.069Z,2.38
2022-12-29T11:46:33.855Z,3.38
2022-12-29T11:49:01.449Z,2.30
2022-12-29T11:51:30.395Z,2.83
2022-12-29T11:54:03.421Z,2.65
2022-12-29T11:56:44.873Z,2.42
2022-12-29T11:59:35.241Z,2.63
2022-12-29T12:02:12.055Z,2.05
2022-12-29T12:04:39.422Z,2.28
2022-12-29T12:07:16.558Z,2.30
2022-12-29T12:10:06.522Z,2.10
2022-12-29T12:12:37.613Z,2.40
2022-12-29T12:15:05.171Z,2.10
2022-12-29T12:17:39.460Z,2.45
2022-12-29T12:20:17.667Z,1.95
2022-12-29T12:23:28.583Z,3.00
2022-12-29T12:26:10.586Z,1.83
2022-12-29T12:28:49.946Z,2.40
2022-12-29T12:32:09.140Z,3.50
2022-12-29T12:34:41.966Z,2.50
2022-12-29T12:37:52.611Z,1.80
2022-12-29T12:40:56.342Z,2.13
2022-12-29T12:43:22.735Z,2.13
2022-12-29T12:46:07.856Z,1.70
2022-12-29T12:48:59.662Z,2.17
2022-12-29T12:51:41.350Z,1.95
2022-12-29T12:54:13.835Z,2.60
2022-12-29T12:57:05.255Z,2.22
2022-12-29T12:59:42.378Z,2.17
2022-12-29T13:02:21.344Z,1.85
2022-12-29T13:05:27.227Z,1.63
2022-12-29T13:08:24.778Z,3.05
2022-12-29T13:10:54.164Z,2.53
2022-12-29T13:13:39.832Z,1.60
2022-12-29T13:16:14.315Z,2.58
2022-12-29T13:19:05.041Z,2.30
2022-12-29T13:22:01.810Z,2.17
2022-12-29T13:24:48.039Z,2.20
2022-12-29T13:27:37.348Z,2.50
2022-12-29T13:30:28.084Z,2.38
2022-12-29T13:33:01.529Z,2.70
2022-12-29T13:35:53.825Z,2.90
2022-12-29T13:38:28.518Z,2.85
2022-12-29T13:40:57.914Z,2.63
2022-12-29T13:43:25.890Z,2.83
2022-12-29T13:46:19.210Z,2.83
2022-12-29T13:48:51.634Z,3.30
2022-12-29T13:51:22.636Z,3.13
2022-12-29T13:54:14.467Z,2.58
2022-12-29T13:56:44.601Z,3.35
2022-12-29T13:59:17.201Z,2.42
2022-12-29T14:01:49.939Z,2.08
2022-12-29T14:04:24.357Z,2.67
2022-12-29T14:07:05.872Z,2.20
2022-12-29T14:09:51.862Z,2.50
2022-12-29T14:12:29.833Z,3.75
2022-12-29T14:15:05.197Z,2.58
2022-12-29T14:17:31.591Z,2.22
2022-12-29T14:19:57.985Z,2.88
2022-12-29T14:22:32.349Z,2.65
2022-12-29T14:24:59.567Z,2.70
2022-12-29T14:27:52.466Z,3.00
2022-12-29T14:30:50.716Z,2.95
2022-12-29T14:33:18.088Z,3.08
2022-12-29T14:35:50.297Z,2.97
2022-12-29T14:38:19.460Z,3.55
2022-12-29T14:40:47.167Z,3.88
2022-12-29T14:43:19.574Z,3.50
2022-12-29T14:45:54.130Z,3.67
2022-12-29T14:48:43.883Z,3.30
2022-12-29T14:51:31.965Z,3.40
2022-12-29T14:53:58.393Z,4.32
2022-12-29T14:56:29.826Z,2.83
2022-12-29T14:59:04.099Z,3.25
2022-12-29T15:01:33.707Z,2.55
2022-12-29T15:04:06.385Z,2.90
2022-12-29T15:06:37.017Z,2.50
2022-12-29T15:09:29.414Z,2.60
2022-12-29T15:12:01.508Z,2.40
2022-12-29T15:14:37.644Z,2.33
2022-12-29T15:17:30.134Z,2.70
2022-12-29T15:19:57.797Z,3.00
2022-12-29T15:22:24.914Z,2.80
2022-12-29T15:24:52.948Z,2.40
2022-12-29T15:27:24.798Z,2.47
2022-12-29T15:30:08.320Z,3.85
2022-12-29T15:32:43.775Z,2.15
2022-12-29T15:35:35.244Z,2.10
2022-12-29T15:38:14.584Z,2.10
2022-12-29T15:40:41.008Z,1.90
2022-12-29T15:43:10.822Z,1.70
2022-12-29T15:45:37.703Z,2.13
2022-12-29T15:48:05.219Z,2.88
2022-12-29T15:50:36.176Z,1.90
2022-12-29T15:53:03.164Z,3.60
2022-12-29T15:55:33.892Z,2.78
2022-12-29T15:58:02.979Z,3.53
2022-12-29T16:00:34.869Z,3.10
2022-12-29T16:03:03.093Z,3.78
2022-12-29T16:05:37.934Z,3.97
2022-12-29T16:08:04.806Z,3.72
2022-12-29T16:10:37.953Z,4.03
2022-12-29T16:13:23.105Z,3.30
2022-12-29T16:15:50.838Z,3.17
2022-12-29T16:18:25.502Z,2.92
2022-12-29T16:20:52.231Z,2.80
2022-12-29T16:23:23.877Z,3.40
2022-12-29T16:25:50.463Z,2.92
2022-12-29T16:28:26.035Z,3.05
2022-12-29T16:31:00.617Z,2.72
2022-12-29T16:33:47.824Z,3.95
2022-12-29T16:36:34.742Z,2.83
2022-12-29T16:39:26.484Z,2.00
2022-12-29T16:41:54.256Z,2.20
2022-12-29T16:44:29.310Z,2.10
2022-12-29T16:47:05.264Z,2.08
2022-12-29T16:49:33.434Z,1.70
2022-12-29T16:52:00.044Z,2.25
2022-12-29T16:54:36.249Z,1.67
2022-12-29T16:57:03.224Z,2.08
2022-12-29T16:59:39.742Z,2.30
2022-12-29T17:02:15.706Z,2.15
2022-12-29T17:04:42.323Z,2.83
2022-12-29T17:07:17.740Z,5.20
2022-12-29T17:09:44.286Z,4.00
2022-12-29T17:12:18.373Z,3.15
2022-12-29T17:14:55.043Z,3.30
2022-12-29T17:17:30.911Z,2.33
2022-12-29T17:20:03.056Z,3.03
2022-12-29T17:22:30.164Z,4.25
2022-12-29T17:24:58.527Z,4.63
2022-12-29T17:27:31.935Z,5.78
2022-12-29T17:30:10.605Z,6.38
2022-12-29T17:32:37.038Z,5.80
2022-12-29T17:35:03.940Z,3.28
2022-12-29T17:37:31.726Z,3.58
2022-12-29T17:39:58.334Z,3.65
2022-12-29T17:42:24.920Z,3.63
2022-12-29T17:44:51.382Z,2.55
2022-12-29T17:47:18.043Z,2.78
2022-12-29T17:49:47.513Z,1.92
2022-12-29T17:52:15.003Z,2.03
2022-12-29T17:54:48.237Z,2.38
2022-12-29T17:57:16.250Z,2.53
2022-12-29T17:59:43.165Z,3.67
2022-12-29T18:02:30.740Z,4.78
2022-12-29T18:04:59.026Z,5.18
2022-12-29T18:07:35.444Z,5.07
2022-12-29T18:10:03.061Z,3.97
2022-12-29T18:12:35.231Z,3.05
2022-12-29T18:15:01.652Z,3.03
2022-12-29T18:17:28.071Z,4.00
2022-12-29T18:19:55.490Z,4.13
2022-12-29T18:22:23.518Z,3.75
2022-12-29T18:24:50.151Z,4.03
2022-12-29T18:27:19.323Z,4.93
2022-12-29T18:29:46.721Z,4.40
2022-12-29T18:32:13.589Z,3.30
2022-12-29T18:34:41.242Z,4.13
2022-12-29T18:37:08.790Z,3.22
2022-12-29T18:39:36.902Z,4.88
2022-12-29T18:42:04.695Z,3.33
2022-12-29T18:44:31.121Z,3.72
2022-12-29T18:46:57.674Z,2.55
2022-12-29T18:49:25.454Z,3.08
2022-12-29T18:51:51.966Z,2.78
2022-12-29T18:54:28.431Z,3.03
2022-12-29T18:56:54.925Z,2.40
2022-12-29T18:59:21.481Z,2.72
2022-12-29T19:01:48.120Z,3.35
2022-12-29T19:04:15.062Z,3.65
2022-12-29T19:06:42.020Z,3.53
2022-12-29T19:09:08.763Z,3.38
2022-12-29T19:11:35.337Z,3.90
2022-12-29T19:14:01.758Z,4.47
2022-12-29T19:16:28.178Z,4.50
2022-12-29T19:19:08.504Z,3.70
2022-12-29T19:21:36.601Z,5.25
2022-12-29T19:24:03.174Z,3.58
2022-12-29T19:26:34.220Z,4.72
2022-12-29T19:31:27.165Z,5.38
2022-12-29T19:33:53.971Z,4.97
2022-12-29T19:36:21.300Z,6.20
2022-12-29T19:38:48.002Z,4.53
2022-12-29T19:41:14.583Z,3.97
2022-12-29T19:43:41.145Z,4.07
2022-12-29T19:46:10.500Z,5.00
2022-12-29T19:48:37.067Z,3.80
2022-12-29T19:51:10.243Z,6.78
2022-12-29T19:53:36.966Z,4.75
2022-12-29T19:56:04.956Z,6.60
2022-12-29T19:58:32.405Z,5.95
2022-12-29T20:01:10.980Z,5.57
2022-12-29T20:03:38.624Z,5.07
2022-12-29T20:06:06.659Z,4.88
2022-12-29T20:08:33.403Z,5.60
2022-12-29T20:11:04.011Z,4.68
2022-12-29T20:13:32.097Z,5.70
2022-12-29T20:16:00.193Z,5.22
2022-12-29T20:18:29.185Z,4.60
2022-12-29T20:21:07.115Z,5.60
2022-12-29T20:23:34.687Z,7.03
2022-12-29T20:26:01.513Z,5.60
2022-12-29T20:28:28.745Z,4.85
2022-12-29T20:31:07.394Z,4.93
2022-12-29T20:33:35.195Z,6.40
2022-12-29T20:36:15.086Z,5.13
2022-12-29T20:38:42.400Z,4.45
2022-12-29T20:41:09.099Z,2.85
2022-12-29T20:43:35.726Z,3.42
2022-12-29T20:46:02.353Z,2.90
2022-12-29T20:48:29.662Z,2.63
2022-12-29T20:50:59.372Z,3.55
2022-12-29T20:53:30.414Z,3.08
2022-12-29T20:58:26.872Z,3.65
2022-12-29T21:00:54.887Z,4.43
2022-12-29T21:03:22.454Z,3.70
2022-12-29T21:05:48.959Z,3.60
2022-12-29T21:08:15.456Z,3.67
2022-12-29T21:10:45.725Z,4.32
2022-12-29T21:13:12.123Z,4.85
2022-12-29T21:15:38.515Z,3.78
2022-12-29T21:18:05.022Z,4.68
2022-12-29T21:20:31.802Z,4.10
2022-12-29T21:23:00.870Z,4.53
2022-12-29T21:25:37.111Z,4.35
2022-12-29T21:28:05.751Z,4.10
2022-12-29T21:30:32.995Z,3.83
2022-12-29T21:32:59.790Z,3.58
2022-12-29T21:35:26.583Z,4.05
2022-12-29T21:37:53.239Z,4.22
2022-12-29T21:40:20.959Z,4.00
2022-12-29T21:42:49.233Z,3.50
2022-12-29T21:45:24.928Z,3.65
2022-12-29T21:48:10.427Z,2.60
2022-12-29T21:50:59.235Z,3.33
2022-12-29T21:53:37.867Z,2.75
2022-12-29T21:56:09.935Z,4.68
2022-12-29T21:58:57.238Z,3.60
2022-12-29T22:01:43.226Z,4.10
2022-12-29T22:04:31.454Z,3.83
2022-12-29T22:07:16.386Z,2.70
2022-12-29T22:10:01.427Z,3.70
2022-12-29T22:12:48.362Z,3.30
2022-12-29T22:15:14.801Z,4.03
2022-12-29T22:17:48.901Z,4.38
2022-12-29T22:20:16.491Z,4.57
2022-12-29T22:22:42.923Z,4.30
2022-12-29T22:25:10.371Z,4.40
2022-12-29T22:27:37.066Z,3.08
2022-12-29T22:30:05.308Z,3.63
2022-12-29T22:32:32.356Z,3.30
2022-12-29T22:34:58.843Z,4.45
2022-12-29T22:37:25.506Z,4.10
2022-12-29T22:39:52.262Z,4.22
2022-12-29T22:42:18.773Z,5.65
2022-12-29T22:44:45.250Z,5.03
2022-12-29T22:47:11.683Z,4.45
2022-12-29T22:49:38.080Z,5.05
2022-12-29T22:52:05.051Z,3.65
2022-12-29T22:54:31.828Z,3.85
2022-12-29T22:56:58.273Z,4.88
2022-12-29T22:59:24.674Z,6.13
2022-12-29T23:01:51.381Z,5.85
2022-12-29T23:07:05.193Z,6.75
2022-12-29T23:09:31.598Z,5.03
2022-12-29T23:11:58.146Z,5.32
2022-12-29T23:14:24.710Z,7.10
2022-12-29T23:16:51.195Z,6.38
2022-12-29T23:19:17.705Z,6.32
2022-12-29T23:21:45.659Z,5.13
2022-12-29T23:24:13.274Z,5.82
2022-12-29T23:26:46.743Z,5.10
2022-12-29T23:29:15.990Z,5.20
2022-12-29T23:31:42.910Z,5.28
2022-12-29T23:34:10.470Z,3.42
2022-12-29T23:36:37.115Z,4.35
2022-12-29T23:39:04.501Z,5.25
2022-12-29T23:41:31.003Z,6.45
2022-12-29T23:43:57.566Z,3.78
2022-12-29T23:46:26.559Z,4.75
2022-12-29T23:48:53.111Z,5.93
2022-12-29T23:51:19.697Z,4.15
2022-12-29T23:53:46.509Z,4.53
2022-12-29T23:56:15.879Z,4.82
2022-12-29T23:58:42.300Z,4.20
